createdAt,value
2018-07-27T00:01:26.965Z,23.71
2018-07-27T00:06:10.686Z,23.40
2018-07-27T00:10:55.329Z,23.39
2018-07-27T00:15:39.026Z,23.89
2018-07-27T00:20:23.683Z,23.97
2018-07-27T00:25:07.469Z,23.65
2018-07-27T00:29:52.246Z,23.49
2018-07-27T00:34:35.810Z,23.80
2018-07-27T00:39:19.402Z,23.48
2018-07-27T00:44:02.860Z,23.90
2018-07-27T00:48:47.656Z,23.51
2018-07-27T00:53:31.261Z,23.70
2018-07-27T00:58:14.974Z,22.82
2018-07-27T01:02:58.565Z,23.57
2018-07-27T01:07:42.241Z,23.73
2018-07-27T01:12:25.813Z,23.29
2018-07-27T01:17:12.445Z,23.48
2018-07-27T01:21:55.757Z,23.43
2018-07-27T01:26:43.366Z,23.43
2018-07-27T01:31:26.908Z,23.45
2018-07-27T01:36:10.517Z,23.61
2018-07-27T01:40:54.110Z,23.50
2018-07-27T01:45:37.713Z,23.40
2018-07-27T01:50:22.532Z,23.31
2018-07-27T01:55:06.018Z,23.55
2018-07-27T01:59:50.573Z,23.53
2018-07-27T02:04:34.088Z,22.97
2018-07-27T02:09:21.546Z,23.44
2018-07-27T02:14:05.079Z,23.45
2018-07-27T02:18:48.766Z,23.35
2018-07-27T02:23:32.358Z,23.22
2018-07-27T02:28:19.593Z,23.26
2018-07-27T02:33:03.204Z,23.10
2018-07-27T02:37:47.985Z,23.29
2018-07-27T02:42:31.443Z,23.08
2018-07-27T02:47:15.021Z,23.21
2018-07-27T02:51:58.566Z,23.08
2018-07-27T02:56:42.391Z,23.10
2018-07-27T03:01:25.962Z,22.73
2018-07-27T03:06:09.571Z,22.71
2018-07-27T03:10:53.254Z,23.03
2018-07-27T03:15:36.991Z,23.05
2018-07-27T03:20:20.909Z,22.84
2018-07-27T03:25:04.566Z,22.66
2018-07-27T03:29:48.405Z,22.70
2018-07-27T03:34:31.844Z,22.87
2018-07-27T03:39:15.550Z,22.95
2018-07-27T03:43:59.054Z,23.02
2018-07-27T03:48:43.454Z,23.01
2018-07-27T03:53:27.007Z,23.01
2018-07-27T03:58:10.811Z,23.03
2018-07-27T04:02:54.404Z,22.91
2018-07-27T04:07:41.149Z,22.82
2018-07-27T04:12:24.582Z,22.55
2018-07-27T04:17:11.751Z,22.76
2018-07-27T04:21:55.390Z,23.10
2018-07-27T04:26:39.156Z,23.07
2018-07-27T04:31:22.810Z,23.02
2018-07-27T04:36:06.488Z,22.77
2018-07-27T04:40:50.090Z,23.04
2018-07-27T04:45:33.702Z,23.09
2018-07-27T04:50:17.664Z,22.82
2018-07-27T04:55:02.247Z,22.85
2018-07-27T04:59:48.944Z,23.02
2018-07-27T05:04:32.515Z,22.95
2018-07-27T05:09:22.411Z,23.02
2018-07-27T05:14:05.965Z,22.88
2018-07-27T05:18:49.936Z,22.98
2018-07-27T05:23:33.512Z,22.94
2018-07-27T05:28:18.084Z,22.97
2018-07-27T05:33:01.727Z,23.05
2018-07-27T05:37:46.481Z,23.09
2018-07-27T05:42:30.138Z,23.06
2018-07-27T05:47:13.820Z,23.02
2018-07-27T05:51:57.403Z,23.06
2018-07-27T05:56:41.320Z,23.16
2018-07-27T06:01:24.934Z,23.28
2018-07-27T06:06:08.713Z,23.42
2018-07-27T06:10:52.263Z,23.43
2018-07-27T06:15:35.815Z,23.56
2018-07-27T06:20:19.412Z,23.54
2018-07-27T06:25:02.989Z,23.63
2018-07-27T06:29:47.853Z,23.77
2018-07-27T06:34:32.030Z,23.73
2018-07-27T06:39:16.684Z,23.75
2018-07-27T06:44:00.189Z,23.77
2018-07-27T06:48:43.832Z,23.84
2018-07-27T06:53:27.698Z,23.87
2018-07-27T06:58:11.289Z,24.09
2018-07-27T07:02:54.857Z,24.15
2018-07-27T07:07:39.416Z,24.13
2018-07-27T07:12:22.965Z,24.18
2018-07-27T07:17:06.623Z,24.18
2018-07-27T07:21:50.169Z,24.34
2018-07-27T07:26:34.913Z,24.37
2018-07-27T07:31:19.367Z,24.25
2018-07-27T07:36:03.042Z,24.31
2018-07-27T07:40:46.545Z,24.42
2018-07-27T07:45:30.589Z,24.25
2018-07-27T07:50:14.257Z,24.51
2018-07-27T07:54:57.970Z,24.45
2018-07-27T07:59:41.532Z,24.57
2018-07-27T08:04:25.227Z,24.71
2018-07-27T08:09:10.348Z,24.74
2018-07-27T08:13:53.954Z,24.80
2018-07-27T08:18:37.656Z,24.89
2018-07-27T08:23:21.157Z,24.91
2018-07-27T08:28:19.041Z,24.97
2018-07-27T08:33:02.676Z,25.12
2018-07-27T08:37:49.680Z,24.80
2018-07-27T08:42:33.280Z,25.09
2018-07-27T08:47:20.424Z,25.06
2018-07-27T08:52:03.962Z,25.29
2018-07-27T08:56:51.644Z,25.25
2018-07-27T09:01:35.304Z,25.01
2018-07-27T09:06:19.171Z,24.86
2018-07-27T09:11:02.810Z,24.99
2018-07-27T09:15:49.763Z,24.91
2018-07-27T09:20:33.426Z,24.82
2018-07-27T09:25:21.129Z,24.76
2018-07-27T09:30:06.063Z,24.75
2018-07-27T09:34:49.752Z,24.96
2018-07-27T09:39:33.532Z,25.03
2018-07-27T09:44:17.800Z,25.15
2018-07-27T09:49:04.630Z,24.95
2018-07-27T09:53:50.463Z,24.69
2018-07-27T09:58:35.624Z,24.61
2018-07-27T10:03:19.941Z,24.74
2018-07-27T10:08:03.707Z,24.59
2018-07-27T10:12:48.160Z,24.50
2018-07-27T10:17:32.073Z,24.49
2018-07-27T10:22:15.542Z,24.48
2018-07-27T10:26:59.395Z,24.50
2018-07-27T10:31:42.923Z,24.49
2018-07-27T10:36:27.740Z,24.39
2018-07-27T10:41:11.375Z,24.44
2018-07-27T10:45:58.567Z,24.43
2018-07-27T10:50:42.651Z,24.22
2018-07-27T10:55:27.479Z,24.33
2018-07-27T11:00:18.727Z,24.47
2018-07-27T11:05:06.120Z,24.45
2018-07-27T11:09:50.017Z,24.51
2018-07-27T11:14:33.499Z,24.53
2018-07-27T11:19:17.220Z,24.42
2018-07-27T11:24:00.761Z,24.51
2018-07-27T11:28:44.910Z,24.45
2018-07-27T11:33:30.080Z,24.29
2018-07-27T11:38:13.900Z,24.53
2018-07-27T11:42:57.584Z,24.42
2018-07-27T11:47:41.513Z,24.54
2018-07-27T11:52:25.244Z,24.62
2018-07-27T11:57:08.983Z,24.59
2018-07-27T12:01:52.898Z,24.62
2018-07-27T12:06:37.832Z,24.57
2018-07-27T12:11:21.884Z,24.63
2018-07-27T12:16:07.616Z,24.51
2018-07-27T12:20:51.814Z,24.60
2018-07-27T12:25:35.501Z,24.65
2018-07-27T12:30:19.183Z,24.64
2018-07-27T12:35:03.820Z,24.68
2018-07-27T12:39:47.455Z,24.57
2018-07-27T12:44:30.947Z,24.53
2018-07-27T12:49:14.595Z,24.48
2018-07-27T12:53:58.277Z,24.50
2018-07-27T12:58:42.814Z,24.65
2018-07-27T13:03:26.401Z,24.60
2018-07-27T13:08:11.174Z,24.62
2018-07-27T13:12:54.727Z,24.59
2018-07-27T13:17:41.763Z,24.51
2018-07-27T13:22:26.219Z,24.51
2018-07-27T13:27:13.119Z,24.42
2018-07-27T13:31:58.277Z,23.96
2018-07-27T13:36:43.054Z,23.69
2018-07-27T13:41:26.725Z,23.92
2018-07-27T13:46:10.635Z,24.05
2018-07-27T13:50:54.405Z,24.00
2018-07-27T13:55:38.169Z,24.06
2018-07-27T14:00:21.785Z,23.99
2018-07-27T14:05:07.025Z,24.25
2018-07-27T14:09:50.715Z,24.26
2018-07-27T14:14:34.512Z,24.22
2018-07-27T14:19:18.874Z,24.20
2018-07-27T14:24:02.417Z,24.36
2018-07-27T14:28:46.201Z,24.41
2018-07-27T14:33:29.780Z,24.40
2018-07-27T14:38:13.635Z,24.41
2018-07-27T14:42:57.234Z,24.38
2018-07-27T14:47:41.168Z,24.44
2018-07-27T14:52:24.966Z,24.28
2018-07-27T14:57:09.370Z,24.22
2018-07-27T15:01:52.892Z,24.15
2018-07-27T15:06:37.512Z,24.36
2018-07-27T15:11:21.052Z,24.27
2018-07-27T15:16:07.597Z,24.27
2018-07-27T15:20:50.920Z,24.39
2018-07-27T15:25:34.662Z,24.27
2018-07-27T15:30:18.197Z,24.32
2018-07-27T15:35:05.605Z,24.26
2018-07-27T15:39:49.274Z,24.35
2018-07-27T15:44:33.114Z,24.18
2018-07-27T15:49:16.696Z,23.94
2018-07-27T15:54:00.366Z,24.12
2018-07-27T15:58:43.791Z,24.18
2018-07-27T16:03:27.143Z,24.03
2018-07-27T16:08:10.958Z,24.04
2018-07-27T16:12:54.555Z,24.00
2018-07-27T16:17:41.266Z,24.25
2018-07-27T16:22:24.767Z,24.28
2018-07-27T16:27:08.553Z,24.34
2018-07-27T16:31:52.176Z,24.31
2018-07-27T16:36:43.595Z,24.26
2018-07-27T16:41:27.349Z,24.24
2018-07-27T16:46:11.701Z,24.31
2018-07-27T16:50:55.560Z,24.23
2018-07-27T16:55:39.582Z,24.28
2018-07-27T17:00:25.307Z,24.28
2018-07-27T17:05:10.369Z,24.08
2018-07-27T17:09:53.868Z,24.20
2018-07-27T17:14:38.656Z,24.20
2018-07-27T17:19:22.199Z,24.21
2018-07-27T17:24:11.049Z,24.18
2018-07-27T17:28:54.614Z,24.07
2018-07-27T17:33:38.263Z,23.92
2018-07-27T17:38:21.815Z,24.00
2018-07-27T17:43:05.428Z,24.10
2018-07-27T17:47:49.104Z,24.07
2018-07-27T17:52:32.848Z,23.94
2018-07-27T17:57:19.745Z,23.70
2018-07-27T18:02:06.475Z,23.78
2018-07-27T18:06:54.218Z,23.75
2018-07-27T18:11:39.510Z,23.66
2018-07-27T18:16:23.276Z,23.63
2018-07-27T18:21:07.128Z,23.23
2018-07-27T18:25:50.811Z,23.68
2018-07-27T18:30:35.192Z,23.79
2018-07-27T18:35:18.872Z,23.85
2018-07-27T18:40:03.265Z,23.84
2018-07-27T18:44:51.344Z,23.85
2018-07-27T18:49:34.949Z,23.81
2018-07-27T18:54:22.619Z,23.80
2018-07-27T18:59:06.337Z,23.71
2018-07-27T19:03:50.132Z,23.69
2018-07-27T19:08:33.785Z,23.42
2018-07-27T19:13:17.228Z,23.28
2018-07-27T19:18:00.745Z,23.49
2018-07-27T19:22:44.419Z,23.40
2018-07-27T19:27:27.973Z,23.59
2018-07-27T19:32:11.779Z,23.43
2018-07-27T19:36:56.572Z,23.59
2018-07-27T19:41:40.676Z,23.48
2018-07-27T19:46:24.429Z,23.56
2018-07-27T19:51:08.914Z,23.37
2018-07-27T19:55:55.600Z,23.41
2018-07-27T20:00:39.384Z,23.16
2018-07-27T20:05:23.075Z,23.27
2018-07-27T20:10:07.179Z,23.13
2018-07-27T20:14:50.968Z,23.45
2018-07-27T20:19:34.603Z,23.43
2018-07-27T20:24:18.431Z,23.34
2018-07-27T20:29:02.028Z,23.37
2018-07-27T20:33:46.230Z,23.44
2018-07-27T20:38:30.420Z,23.37
2018-07-27T20:43:14.116Z,22.86
2018-07-27T20:47:58.910Z,22.51
2018-07-27T20:52:42.599Z,22.62
2018-07-27T20:57:29.652Z,23.01
2018-07-27T21:02:13.306Z,22.70
2018-07-27T21:06:56.920Z,22.57
2018-07-27T21:11:41.528Z,22.85
2018-07-27T21:16:26.389Z,23.12
2018-07-27T21:21:10.030Z,22.75
2018-07-27T21:25:57.447Z,22.89
2018-07-27T21:30:41.093Z,22.00
2018-07-27T21:35:25.612Z,22.81
2018-07-27T21:40:09.126Z,22.84
2018-07-27T21:44:52.869Z,22.09
2018-07-27T21:49:36.509Z,21.99
2018-07-27T21:54:20.165Z,22.59
2018-07-27T21:59:03.825Z,22.82
2018-07-27T22:03:48.480Z,22.88
2018-07-27T22:08:32.146Z,22.91
2018-07-27T22:13:15.797Z,22.86
2018-07-27T22:17:59.241Z,22.88
2018-07-27T22:22:42.902Z,22.90
2018-07-27T22:27:29.470Z,22.82
2018-07-27T22:32:13.034Z,22.77
2018-07-27T22:36:57.068Z,22.61
2018-07-27T22:41:40.657Z,22.63
2018-07-27T22:46:24.405Z,22.77
2018-07-27T22:51:08.239Z,22.71
2018-07-27T22:55:51.945Z,22.77
2018-07-27T23:00:35.599Z,22.64
2018-07-27T23:05:22.550Z,22.63
2018-07-27T23:10:08.299Z,22.75
2018-07-27T23:14:51.891Z,22.71
2018-07-27T23:19:35.423Z,22.67
2018-07-27T23:24:19.107Z,21.97
2018-07-27T23:29:02.609Z,22.36
2018-07-27T23:33:47.266Z,22.28
2018-07-27T23:38:30.881Z,22.53
2018-07-27T23:43:14.564Z,22.65
2018-07-27T23:47:58.193Z,22.56
2018-07-27T23:52:41.827Z,22.50
2018-07-27T23:57:28.668Z,22.49
